createdAt,value
2023-03-15T00:00:51.758Z,27.90
2023-03-15T00:01:51.844Z,27.94
2023-03-15T03:03:43.315Z,27.64
2023-03-15T03:04:43.260Z,27.58
2023-03-15T03:05:43.190Z,27.60
2023-03-15T03:06:43.161Z,27.62
2023-03-15T03:07:43.125Z,27.58
2023-03-15T03:08:43.053Z,27.63
2023-03-15T03:09:42.992Z,27.58
2023-03-15T03:10:42.920Z,27.60
2023-03-15T03:11:42.894Z,27.61
2023-03-15T03:12:42.825Z,27.61
2023-03-15T03:13:42.785Z,27.64
2023-03-15T03:14:42.813Z,27.61
2023-03-15T03:15:44.475Z,27.62
2023-03-15T03:16:42.872Z,27.63
2023-03-15T03:17:42.743Z,27.58
2023-03-15T03:18:42.713Z,27.60
2023-03-15T03:19:42.626Z,27.61
2023-03-15T03:20:42.585Z,27.61
2023-03-15T03:21:42.537Z,27.56
2023-03-15T03:22:42.501Z,27.61
2023-03-15T03:23:42.473Z,27.59
2023-03-15T03:24:42.501Z,27.62
2023-03-15T03:25:42.526Z,27.60
2023-03-15T03:26:42.542Z,27.61
2023-03-15T03:27:42.505Z,27.60
2023-03-15T03:28:42.536Z,27.54
2023-03-15T03:29:42.517Z,27.60
2023-03-15T03:30:42.552Z,27.60
2023-03-15T03:31:42.541Z,27.60
2023-03-15T03:32:42.544Z,27.56
2023-03-15T03:33:42.551Z,27.54
2023-03-15T03:34:42.521Z,27.55
2023-03-15T03:35:42.568Z,27.53
2023-03-15T03:36:42.556Z,27.52
2023-03-15T03:37:42.544Z,27.55
2023-03-15T03:38:42.567Z,27.55
2023-03-15T03:39:42.544Z,27.52
2023-03-15T03:40:42.579Z,27.54
2023-03-15T03:41:42.585Z,27.53
2023-03-15T03:42:42.650Z,27.52
2023-03-15T03:43:42.574Z,27.56
2023-03-15T03:44:42.612Z,27.55
2023-03-15T03:45:42.585Z,27.51
2023-03-15T03:46:42.601Z,27.56
2023-03-15T03:47:42.607Z,27.54
2023-03-15T03:48:42.578Z,27.56
2023-03-15T03:49:42.576Z,27.55
2023-03-15T03:50:42.619Z,27.56
2023-03-15T03:51:42.616Z,27.56
2023-03-15T03:52:42.647Z,27.56
2023-03-15T03:53:42.616Z,27.56
2023-03-15T03:54:42.633Z,27.52
2023-03-15T03:55:42.636Z,27.55
2023-03-15T03:56:42.633Z,27.55
2023-03-15T03:57:42.648Z,27.54
2023-03-15T03:58:42.775Z,27.53
2023-03-15T03:59:42.697Z,27.55
2023-03-15T04:00:42.662Z,27.56
2023-03-15T04:01:42.661Z,27.52
2023-03-15T04:02:42.752Z,27.52
2023-03-15T04:03:42.683Z,27.53
2023-03-15T04:04:42.719Z,27.49
2023-03-15T04:05:42.707Z,27.52
2023-03-15T04:06:42.716Z,27.50
2023-03-15T04:07:42.771Z,27.53
2023-03-15T04:08:42.743Z,27.50
2023-03-15T04:09:42.746Z,27.45
2023-03-15T04:10:42.748Z,27.56
2023-03-15T04:11:42.779Z,27.53
2023-03-15T04:12:42.811Z,27.50
2023-03-15T04:13:42.786Z,27.50
2023-03-15T04:14:42.803Z,27.50
2023-03-15T04:15:42.815Z,27.46
2023-03-15T04:16:42.829Z,27.49
2023-03-15T04:17:42.849Z,27.49
2023-03-15T04:18:42.844Z,27.47
2023-03-15T04:19:42.832Z,27.49
2023-03-15T04:20:42.840Z,27.46
2023-03-15T04:21:42.861Z,27.49
2023-03-15T04:22:42.893Z,27.46
2023-03-15T04:23:42.863Z,27.48
2023-03-15T04:24:42.864Z,27.47
2023-03-15T04:25:42.912Z,27.50
2023-03-15T04:26:42.897Z,27.47
2023-03-15T04:27:42.907Z,27.48
2023-03-15T04:28:42.938Z,27.50
2023-03-15T04:29:42.919Z,27.46
2023-03-15T04:30:43.017Z,27.46
2023-03-15T04:31:42.932Z,27.48
2023-03-15T04:32:42.981Z,27.50
2023-03-15T04:33:42.924Z,27.49
2023-03-15T04:34:42.941Z,27.46
2023-03-15T04:35:43.008Z,27.50
2023-03-15T04:36:42.948Z,27.43
2023-03-15T04:37:42.950Z,27.43
2023-03-15T04:38:42.929Z,27.45
2023-03-15T04:39:42.986Z,27.49
2023-03-15T04:40:42.942Z,27.52
2023-03-15T04:41:43.003Z,27.46
2023-03-15T04:42:42.978Z,27.46
2023-03-15T04:43:42.976Z,27.45
2023-03-15T04:44:42.981Z,27.47
2023-03-15T04:45:42.954Z,27.42
2023-03-15T04:46:43.079Z,27.49
2023-03-15T04:47:42.986Z,27.45
2023-03-15T04:48:42.977Z,27.42
2023-03-15T04:49:42.955Z,27.42
2023-03-15T04:50:42.972Z,27.43
2023-03-15T04:51:42.960Z,27.43
2023-03-15T04:52:42.972Z,27.45
2023-03-15T04:53:43.030Z,27.39
2023-03-15T04:54:42.994Z,27.41
2023-03-15T04:55:42.878Z,27.45
2023-03-15T04:56:42.834Z,27.40
2023-03-15T04:57:42.765Z,27.42
2023-03-15T04:58:42.735Z,27.45
2023-03-15T04:59:42.651Z,27.42
2023-03-15T05:00:42.783Z,27.43
2023-03-15T05:01:42.618Z,27.42
2023-03-15T05:02:42.473Z,27.40
2023-03-15T05:03:42.435Z,27.43
2023-03-15T05:04:42.357Z,27.43
2023-03-15T05:05:42.299Z,27.43
2023-03-15T05:06:42.250Z,27.39
2023-03-15T05:07:42.245Z,27.43
2023-03-15T05:08:42.180Z,27.43
2023-03-15T05:09:42.063Z,27.42
2023-03-15T05:10:42.018Z,27.39
2023-03-15T05:11:41.985Z,27.42
2023-03-15T05:12:41.916Z,27.40
2023-03-15T05:13:41.833Z,27.40
2023-03-15T05:14:41.884Z,27.39
2023-03-15T05:15:41.732Z,27.39
2023-03-15T06:27:38.562Z,26.90
2023-03-15T06:28:38.473Z,26.70
2023-03-15T06:30:38.703Z,26.68
2023-03-15T06:31:38.435Z,26.83
2023-03-15T06:32:38.427Z,27.00
2023-03-15T06:33:38.215Z,26.83
2023-03-15T06:35:38.223Z,27.47
2023-03-15T06:36:38.061Z,27.55
2023-03-15T06:37:37.986Z,27.51
2023-03-15T06:38:37.969Z,27.64
2023-03-15T06:39:37.881Z,27.92
2023-03-15T06:40:37.922Z,27.40
2023-03-15T06:41:37.836Z,27.66
2023-03-15T06:42:37.713Z,28.20
2023-03-15T06:43:37.648Z,28.49
2023-03-15T06:44:37.649Z,28.37
2023-03-15T06:45:37.577Z,28.59
2023-03-15T06:46:37.569Z,28.68
2023-03-15T06:47:37.479Z,28.41
2023-03-15T06:48:37.805Z,28.26
2023-03-15T06:49:38.308Z,28.19
2023-03-15T06:50:46.524Z,27.93
2023-03-15T06:51:38.313Z,27.94
2023-03-15T06:52:37.251Z,28.13
2023-03-15T06:53:37.097Z,28.14
2023-03-15T06:54:37.112Z,28.19
2023-03-15T06:55:37.337Z,28.23
2023-03-15T06:56:36.925Z,28.42
2023-03-15T06:57:37.853Z,28.39
2023-03-15T06:58:36.947Z,28.47
2023-03-15T06:59:36.824Z,28.41
2023-03-15T07:00:36.806Z,28.05
2023-03-15T07:01:36.721Z,28.14
2023-03-15T07:02:37.475Z,28.63
2023-03-15T07:03:37.338Z,28.69
2023-03-15T07:04:36.441Z,28.53
2023-03-15T07:05:37.479Z,28.84
2023-03-15T07:06:37.016Z,28.90
2023-03-15T07:07:36.363Z,28.84
2023-03-15T07:08:36.954Z,28.83
2023-03-15T07:09:36.304Z,28.97
2023-03-15T07:10:36.184Z,29.05
2023-03-15T07:11:36.109Z,29.21
2023-03-15T07:12:35.989Z,29.05
2023-03-15T07:13:36.048Z,29.15
2023-03-15T07:14:35.921Z,28.96
2023-03-15T07:15:36.247Z,28.98
2023-03-15T07:16:36.023Z,29.11
2023-03-15T07:17:35.909Z,29.30
2023-03-15T07:18:35.993Z,29.08
2023-03-15T07:19:41.413Z,29.46
2023-03-15T07:20:37.685Z,29.56
2023-03-15T07:21:35.787Z,29.59
2023-03-15T07:22:35.772Z,29.40
2023-03-15T07:23:35.839Z,29.62
2023-03-15T07:24:35.648Z,29.69
2023-03-15T07:25:48.267Z,29.72
2023-03-15T07:26:36.599Z,29.91
2023-03-15T07:27:35.445Z,30.09
2023-03-15T07:28:35.457Z,29.84
2023-03-15T07:29:35.395Z,30.26
2023-03-15T07:30:35.288Z,29.60
2023-03-15T07:31:35.230Z,29.56
2023-03-15T07:32:35.345Z,28.75
2023-03-15T07:33:35.086Z,25.74
2023-03-15T07:34:36.084Z,24.37
2023-03-15T07:35:35.214Z,25.23
2023-03-15T07:36:35.049Z,25.75
2023-03-15T07:37:34.879Z,26.00
2023-03-15T07:38:35.413Z,26.03
2023-03-15T07:39:36.389Z,26.08
2023-03-15T07:40:34.784Z,26.23
2023-03-15T07:41:34.695Z,26.62
2023-03-15T07:42:34.604Z,26.87
2023-03-15T07:43:34.611Z,26.39
2023-03-15T07:44:34.590Z,26.61
2023-03-15T07:45:36.304Z,27.02
2023-03-15T07:46:35.588Z,27.14
2023-03-15T07:47:34.327Z,26.83
2023-03-15T07:48:34.338Z,27.05
2023-03-15T07:49:34.426Z,27.28
2023-03-15T07:50:34.186Z,27.11
2023-03-15T07:51:35.216Z,27.47
2023-03-15T07:52:34.062Z,27.62
2023-03-15T07:53:33.992Z,27.76
2023-03-15T07:54:33.939Z,27.65
2023-03-15T07:55:33.966Z,27.61
2023-03-15T07:56:33.873Z,27.70
2023-03-15T07:57:33.787Z,27.84
2023-03-15T07:58:33.663Z,27.96
2023-03-15T07:59:34.423Z,27.85
2023-03-15T08:00:33.592Z,27.96
2023-03-15T08:01:33.507Z,28.06
2023-03-15T08:02:33.484Z,28.27
2023-03-15T08:03:33.564Z,27.93
2023-03-15T08:04:35.643Z,27.97
2023-03-15T08:05:33.345Z,28.29
2023-03-15T08:06:33.227Z,27.64
2023-03-15T08:07:33.114Z,28.05
2023-03-15T08:08:33.086Z,28.07
2023-03-15T08:09:32.960Z,28.18
2023-03-15T08:10:33.426Z,28.09
2023-03-15T08:11:32.833Z,27.85
2023-03-15T08:12:32.740Z,27.95
2023-03-15T08:13:32.783Z,28.19
2023-03-15T08:14:32.651Z,28.17
2023-03-15T08:15:32.657Z,28.31
2023-03-15T08:16:32.579Z,28.41
2023-03-15T08:17:34.389Z,28.29
2023-03-15T08:18:32.352Z,28.74
2023-03-15T08:19:32.886Z,28.47
2023-03-15T08:20:32.238Z,28.43
2023-03-15T08:21:32.142Z,28.20
2023-03-15T08:22:33.455Z,28.29
2023-03-15T08:23:32.031Z,28.22
2023-03-15T08:24:31.897Z,28.20
2023-03-15T08:25:31.870Z,28.40
2023-03-15T08:26:31.786Z,28.51
2023-03-15T08:27:32.418Z,28.52
2023-03-15T08:31:32.524Z,27.92
2023-03-15T08:33:32.376Z,27.33
2023-03-15T08:37:32.008Z,26.78
2023-03-15T08:44:33.103Z,21.79
2023-03-15T09:08:43.883Z,24.24
2023-03-15T09:45:26.784Z,19.63
2023-03-15T09:47:26.768Z,19.57
2023-03-15T09:48:26.618Z,19.58
2023-03-15T09:49:26.600Z,19.94
2023-03-15T09:50:27.531Z,20.17
2023-03-15T09:51:26.388Z,20.48
2023-03-15T09:52:26.342Z,21.35
2023-03-15T09:53:26.358Z,21.65
2023-03-15T09:54:26.472Z,21.80
2023-03-15T09:55:26.432Z,21.67
2023-03-15T09:56:26.149Z,21.93
2023-03-15T09:57:26.245Z,22.00
2023-03-15T09:58:26.002Z,21.93
2023-03-15T09:59:26.251Z,21.67
2023-03-15T10:00:25.933Z,22.02
2023-03-15T10:01:25.843Z,22.16
2023-03-15T10:02:25.732Z,22.11
2023-03-15T10:03:25.676Z,22.24
2023-03-15T10:04:25.657Z,22.03
2023-03-15T10:05:26.490Z,21.88
2023-03-15T10:06:25.474Z,21.73
2023-03-15T10:07:25.521Z,22.26
2023-03-15T10:08:25.518Z,22.12
2023-03-15T10:09:26.979Z,22.27
2023-03-15T10:10:25.150Z,22.43
2023-03-15T10:11:25.274Z,22.51
2023-03-15T10:12:25.046Z,22.37
2023-03-15T10:13:25.512Z,22.51
2023-03-15T10:14:24.924Z,22.62
2023-03-15T10:15:26.589Z,22.70
2023-03-15T10:16:24.765Z,22.65
2023-03-15T10:17:25.476Z,22.75
2023-03-15T10:18:24.624Z,22.65
2023-03-15T10:19:24.651Z,22.87
2023-03-15T10:20:24.524Z,22.87
2023-03-15T10:21:24.422Z,22.78
2023-03-15T10:22:24.411Z,22.94
2023-03-15T10:23:25.379Z,22.91
2023-03-15T10:24:24.239Z,22.78
2023-03-15T10:25:24.253Z,22.89
2023-03-15T10:26:24.169Z,23.03
2023-03-15T10:27:24.028Z,22.99
2023-03-15T10:28:24.163Z,22.85
2023-03-15T10:29:23.899Z,22.88
2023-03-15T10:30:24.433Z,22.99
2023-03-15T10:31:32.912Z,23.10
2023-03-15T10:32:24.826Z,22.82
2023-03-15T10:33:23.938Z,22.76
2023-03-15T10:34:23.743Z,22.46
2023-03-15T10:35:23.503Z,22.81
2023-03-15T10:36:23.495Z,22.93
2023-03-15T10:37:23.400Z,22.96
2023-03-15T10:38:23.518Z,23.07
2023-03-15T10:39:24.094Z,22.99
2023-03-15T10:40:23.236Z,22.93
2023-03-15T10:41:28.795Z,23.18
2023-03-15T10:42:24.141Z,23.12
2023-03-15T10:43:23.107Z,22.82
2023-03-15T10:44:22.970Z,22.69
2023-03-15T10:45:22.875Z,21.96
2023-03-15T10:46:23.059Z,22.23
2023-03-15T10:47:24.581Z,22.21
2023-03-15T10:48:22.679Z,22.12
2023-03-15T10:49:22.615Z,22.00
2023-03-15T10:50:22.501Z,21.77
2023-03-15T10:51:22.425Z,21.65
2023-03-15T10:52:23.130Z,21.82
2023-03-15T10:53:22.290Z,21.74
2023-03-15T10:54:22.198Z,21.59
2023-03-15T10:55:22.143Z,21.47
2023-03-15T10:56:22.058Z,21.37
2023-03-15T10:57:22.028Z,21.39
2023-03-15T10:58:22.971Z,21.16
2023-03-15T10:59:21.858Z,21.35
2023-03-15T11:00:21.758Z,21.36
2023-03-15T14:18:13.139Z,19.72
2023-03-15T14:19:13.010Z,19.99
2023-03-15T14:20:12.966Z,19.84
2023-03-15T14:21:12.987Z,19.72
2023-03-15T14:22:12.968Z,19.84
2023-03-15T14:23:12.960Z,19.73
2023-03-15T14:24:12.936Z,19.75
2023-03-15T14:25:15.605Z,20.10
2023-03-15T14:26:12.869Z,19.95
2023-03-15T14:27:12.761Z,19.92
2023-03-15T14:28:12.668Z,19.68
2023-03-15T14:29:12.770Z,19.80
2023-03-15T14:30:12.537Z,20.24
2023-03-15T14:31:12.501Z,20.98
2023-03-15T14:32:12.410Z,20.98
2023-03-15T14:34:12.310Z,21.05
2023-03-15T14:35:12.243Z,20.80
2023-03-15T14:36:12.242Z,20.35
2023-03-15T14:37:12.156Z,20.46
2023-03-15T14:38:12.114Z,20.26
2023-03-15T14:39:12.577Z,20.39
2023-03-15T14:40:13.923Z,20.37
2023-03-15T14:41:11.760Z,20.22
2023-03-15T16:55:02.502Z,20.53
2023-03-15T17:01:02.108Z,20.62
2023-03-15T17:02:02.094Z,20.64
2023-03-15T17:03:02.024Z,20.62
2023-03-15T17:04:01.919Z,20.71
2023-03-15T17:05:01.816Z,20.74
2023-03-15T17:06:01.755Z,20.77
2023-03-15T18:33:55.789Z,21.86
2023-03-15T18:35:55.700Z,21.86
2023-03-15T18:36:55.605Z,21.80
2023-03-15T18:37:55.536Z,21.82
2023-03-15T18:39:55.440Z,21.85
2023-03-15T18:40:55.358Z,21.85
2023-03-15T18:41:55.311Z,21.85
2023-03-15T18:42:55.226Z,21.88
2023-03-15T18:43:55.204Z,21.88
2023-03-15T18:44:55.157Z,21.83
2023-03-15T18:45:55.076Z,21.89
2023-03-15T18:46:54.983Z,21.92
2023-03-15T18:47:54.929Z,21.91
2023-03-15T18:48:54.858Z,21.89
2023-03-15T18:50:00.979Z,21.93
2023-03-15T18:50:55.745Z,21.94
2023-03-15T18:51:54.697Z,21.99
2023-03-15T18:52:54.615Z,21.99
2023-03-15T18:53:54.543Z,22.00
2023-03-15T18:54:54.490Z,22.06
2023-03-15T18:55:54.432Z,22.02
2023-03-15T18:56:54.361Z,22.03
2023-03-15T18:57:54.306Z,22.02
2023-03-15T18:58:54.252Z,22.06
2023-03-15T18:59:54.259Z,22.06
2023-03-15T19:00:54.127Z,22.06
2023-03-15T19:01:54.053Z,22.05
2023-03-15T19:02:54.044Z,22.02
2023-03-15T19:03:53.940Z,22.06
2023-03-15T19:04:53.877Z,22.06
2023-03-15T19:05:53.830Z,22.08
2023-03-15T19:06:53.780Z,22.08
2023-03-15T19:07:53.694Z,22.11
2023-03-15T19:08:53.673Z,22.12
2023-03-15T19:09:53.597Z,22.12
2023-03-15T19:10:53.512Z,22.14
2023-03-15T19:11:53.458Z,22.14
2023-03-15T19:12:53.415Z,22.12
2023-03-15T19:13:53.329Z,22.18
2023-03-15T19:14:53.293Z,22.18
2023-03-15T19:15:53.214Z,22.14
2023-03-15T19:16:53.215Z,22.17
2023-03-15T19:17:53.096Z,22.20
2023-03-15T19:18:53.032Z,22.17
2023-03-15T19:19:52.990Z,22.14
2023-03-15T19:20:52.950Z,22.23
2023-03-15T19:21:52.903Z,22.18
2023-03-15T19:22:52.800Z,22.18
2023-03-15T19:23:52.783Z,22.22
2023-03-15T19:24:52.668Z,22.23
2023-03-15T19:25:52.603Z,22.17
2023-03-15T19:26:52.533Z,22.22
2023-03-15T19:27:52.455Z,22.25
2023-03-15T19:28:52.397Z,22.26
2023-03-15T19:29:52.310Z,22.23
2023-03-15T19:30:52.313Z,22.25
2023-03-15T19:31:52.227Z,22.28
2023-03-15T19:32:52.256Z,22.23
2023-03-15T19:33:52.096Z,22.23
2023-03-15T19:34:52.018Z,22.31
2023-03-15T19:35:51.985Z,22.26
2023-03-15T19:36:51.891Z,22.29
2023-03-15T19:37:51.824Z,22.35
2023-03-15T19:38:51.795Z,22.34
2023-03-15T20:25:48.841Z,22.65
2023-03-15T20:26:48.759Z,22.61
2023-03-15T20:27:48.673Z,22.69
2023-03-15T20:28:48.612Z,22.72
2023-03-15T20:29:48.554Z,22.72
2023-03-15T20:30:48.480Z,22.71
2023-03-15T20:31:48.527Z,22.66
2023-03-15T20:32:48.424Z,22.71
2023-03-15T20:33:48.284Z,22.71
2023-03-15T20:34:48.225Z,22.71
2023-03-15T20:35:48.172Z,22.73
2023-03-15T20:36:48.118Z,22.73
2023-03-15T20:37:48.043Z,22.76
2023-03-15T20:38:47.995Z,22.76
2023-03-15T20:39:47.946Z,22.76
2023-03-15T20:40:47.855Z,22.71
2023-03-15T20:41:47.807Z,22.75
2023-03-15T20:42:47.741Z,22.75
2023-03-15T20:43:47.654Z,22.73
2023-03-15T20:44:47.592Z,22.80
2023-03-15T20:45:47.575Z,22.80
2023-03-15T20:46:47.557Z,22.80
2023-03-15T20:47:47.448Z,22.78
2023-03-15T20:48:47.380Z,22.81
2023-03-15T20:49:47.306Z,22.84
2023-03-15T20:50:47.206Z,22.84
2023-03-15T20:51:47.186Z,22.81
2023-03-15T20:52:47.088Z,22.86
2023-03-15T20:53:47.006Z,22.83
2023-03-15T20:54:46.968Z,22.87
2023-03-15T20:55:46.895Z,22.87
2023-03-15T20:56:46.856Z,22.89
2023-03-15T20:57:46.750Z,22.83
2023-03-15T20:58:46.650Z,22.89
2023-03-15T20:59:46.586Z,22.90
2023-03-15T21:00:46.561Z,22.87
2023-03-15T21:01:46.487Z,22.92
2023-03-15T21:02:46.473Z,22.89
2023-03-15T21:03:46.386Z,22.89
2023-03-15T21:04:46.256Z,22.92
2023-03-15T21:05:46.201Z,22.92
2023-03-15T21:06:46.153Z,22.93
2023-03-15T21:07:46.108Z,22.95
2023-03-15T21:08:46.045Z,22.98
2023-03-15T21:09:45.973Z,22.95
2023-03-15T21:10:45.884Z,23.00
2023-03-15T21:11:45.852Z,23.01
2023-03-15T21:12:45.762Z,23.03
2023-03-15T21:13:45.692Z,22.97
2023-03-15T21:14:45.644Z,22.96
2023-03-15T21:15:45.608Z,23.01
2023-03-15T21:16:45.571Z,23.03
2023-03-15T21:17:45.456Z,23.03
2023-03-15T21:18:45.377Z,23.03
2023-03-15T21:19:45.325Z,23.06
2023-03-15T21:20:45.263Z,23.03
2023-03-15T21:21:45.216Z,23.09
2023-03-15T21:22:45.151Z,23.06
2023-03-15T21:23:45.055Z,23.07
2023-03-15T21:24:55.191Z,23.04
2023-03-15T21:25:45.943Z,23.10
2023-03-15T21:26:44.906Z,23.12
2023-03-15T21:27:44.861Z,23.10
2023-03-15T21:28:44.787Z,23.14
2023-03-15T21:29:44.743Z,23.07
2023-03-15T21:30:44.674Z,23.16
2023-03-15T21:31:44.638Z,23.16
2023-03-15T21:32:44.612Z,23.13
2023-03-15T21:33:44.559Z,23.12
2023-03-15T21:34:44.421Z,23.13
2023-03-15T21:35:44.417Z,23.18
2023-03-15T21:36:44.310Z,23.13
2023-03-15T21:37:44.276Z,23.20
2023-03-15T21:38:44.183Z,23.15
2023-03-15T21:39:44.123Z,23.21
2023-03-15T21:40:44.090Z,23.18
2023-03-15T21:41:44.001Z,23.16
2023-03-15T21:42:43.973Z,23.19
2023-03-15T21:43:43.911Z,23.24
2023-03-15T21:44:43.899Z,23.21
2023-03-15T21:45:43.865Z,23.21
2023-03-15T21:46:43.834Z,23.22
2023-03-15T21:47:43.700Z,23.24
2023-03-15T21:48:43.623Z,23.19
2023-03-15T21:49:43.579Z,23.27
2023-03-15T21:50:43.564Z,23.29
2023-03-15T21:51:43.452Z,23.19
2023-03-15T21:52:43.418Z,23.30
2023-03-15T21:53:43.383Z,23.29
2023-03-15T21:54:43.274Z,23.27
2023-03-15T21:55:43.227Z,23.26
2023-03-15T21:56:43.186Z,23.32
2023-03-15T21:57:43.120Z,23.27
2023-03-15T21:58:43.146Z,23.30
2023-03-15T21:59:43.024Z,23.33
2023-03-15T22:00:43.048Z,23.30
2023-03-15T22:01:42.898Z,23.33
2023-03-15T22:02:42.854Z,23.27
2023-03-15T22:03:42.822Z,23.33
2023-03-15T22:04:42.816Z,23.33
2023-03-15T22:05:42.695Z,23.35
2023-03-15T22:06:42.674Z,23.39
2023-03-15T22:07:42.581Z,23.41
2023-03-15T22:08:42.515Z,23.35
2023-03-15T22:09:42.455Z,23.42
2023-03-15T22:10:42.390Z,23.37
2023-03-15T22:11:42.321Z,23.39
2023-03-15T22:12:42.287Z,23.42
2023-03-15T22:13:42.233Z,23.42
2023-03-15T22:14:42.197Z,23.42
2023-03-15T22:15:42.118Z,23.42
2023-03-15T22:16:42.081Z,23.48
2023-03-15T22:17:41.991Z,23.43
2023-03-15T22:18:41.932Z,23.46
2023-03-15T22:19:41.978Z,23.46
2023-03-15T22:20:41.802Z,23.46
2023-03-15T22:21:41.725Z,23.45
2023-03-15T22:22:41.721Z,23.50
2023-03-15T22:23:41.657Z,23.48
2023-03-15T22:24:41.564Z,23.49
2023-03-15T22:25:41.507Z,23.51
2023-03-15T22:26:41.457Z,23.46
2023-03-15T22:27:41.444Z,23.46
2023-03-15T22:28:41.339Z,23.57
2023-03-15T22:29:41.269Z,23.52
2023-03-15T22:30:41.290Z,23.52
2023-03-15T22:31:41.191Z,23.50
2023-03-15T22:32:41.181Z,23.50
2023-03-15T22:33:41.047Z,23.53
2023-03-15T22:34:41.003Z,23.54
2023-03-15T22:35:41.065Z,23.50
2023-03-15T22:36:40.880Z,23.54
2023-03-15T22:37:40.859Z,23.53
2023-03-15T22:38:40.775Z,23.57
2023-03-15T22:39:40.707Z,23.53
2023-03-15T22:40:40.628Z,23.56
2023-03-15T22:41:40.583Z,23.56
2023-03-15T22:42:40.550Z,23.57
2023-03-15T22:43:40.445Z,23.62
2023-03-15T22:44:40.381Z,23.62
2023-03-15T22:45:40.345Z,23.62
2023-03-15T22:46:40.276Z,23.63
2023-03-15T22:47:40.218Z,23.63
2023-03-15T22:48:40.148Z,23.63
2023-03-15T22:49:40.054Z,23.63
2023-03-15T22:50:39.998Z,23.63
2023-03-15T22:51:39.936Z,23.57
2023-03-15T22:52:39.839Z,23.66
2023-03-15T22:53:39.813Z,23.65
2023-03-15T22:54:39.780Z,23.69
2023-03-15T22:55:39.667Z,23.65
2023-03-15T22:56:40.977Z,23.68
2023-03-15T22:57:39.541Z,23.65
2023-03-15T22:58:39.445Z,23.69
2023-03-15T22:59:39.392Z,23.68
2023-03-15T23:00:39.297Z,23.72
2023-03-15T23:01:39.326Z,23.69
2023-03-15T23:02:39.182Z,23.70
2023-03-15T23:03:39.098Z,23.72
2023-03-15T23:04:39.099Z,23.72
2023-03-15T23:05:38.988Z,23.78
2023-03-15T23:06:38.889Z,23.75
2023-03-15T23:07:38.819Z,23.76
2023-03-15T23:08:38.758Z,23.70
2023-03-15T23:09:38.699Z,23.78
2023-03-15T23:10:38.674Z,23.76
2023-03-15T23:11:38.585Z,23.79
2023-03-15T23:12:38.524Z,23.72
2023-03-15T23:13:38.415Z,23.79
2023-03-15T23:14:38.389Z,23.79
2023-03-15T23:15:38.444Z,23.79
2023-03-15T23:16:38.226Z,23.80
2023-03-15T23:17:38.192Z,23.82
2023-03-15T23:18:38.082Z,23.82
2023-03-15T23:19:38.051Z,23.82
2023-03-15T23:20:37.979Z,23.84
2023-03-15T23:21:37.897Z,23.90
2023-03-15T23:22:37.820Z,23.84
2023-03-15T23:23:37.747Z,23.80
2023-03-15T23:24:37.696Z,23.84
2023-03-15T23:25:37.621Z,23.86
2023-03-15T23:26:37.713Z,23.86
2023-03-15T23:27:37.493Z,23.90
2023-03-15T23:28:37.416Z,23.92
2023-03-15T23:29:52.928Z,23.84
2023-03-15T23:30:38.321Z,23.93
2023-03-15T23:31:37.283Z,23.90
2023-03-15T23:32:37.268Z,23.90
2023-03-15T23:33:37.108Z,23.99
2023-03-15T23:34:37.031Z,23.93
2023-03-15T23:35:37.050Z,23.92
2023-03-15T23:36:36.932Z,23.95
2023-03-15T23:37:36.833Z,23.92
2023-03-15T23:38:36.789Z,23.93
2023-03-15T23:39:36.753Z,23.95
2023-03-15T23:40:36.654Z,23.95
2023-03-15T23:41:36.586Z,23.89
2023-03-15T23:42:36.518Z,23.97
2023-03-15T23:43:36.455Z,23.95
2023-03-15T23:44:36.403Z,24.00
2023-03-15T23:45:36.361Z,23.94
2023-03-15T23:46:36.345Z,23.95
2023-03-15T23:47:36.197Z,24.04
2023-03-15T23:48:36.227Z,23.99
2023-03-15T23:49:36.130Z,23.99
2023-03-15T23:50:36.035Z,24.00
2023-03-15T23:51:35.969Z,24.01
2023-03-15T23:52:35.947Z,24.01
2023-03-15T23:53:35.856Z,23.97
2023-03-15T23:54:35.813Z,24.05
2023-03-15T23:55:35.739Z,24.01
2023-03-15T23:56:35.699Z,24.05
2023-03-15T23:57:35.626Z,24.01
2023-03-15T23:58:35.573Z,24.01
2023-03-15T23:59:35.524Z,24.06
